createdAt,value
2017-07-28T00:00:12.128Z,14.15
2017-07-28T00:01:34.290Z,14.12
2017-07-28T00:02:56.232Z,14.15
2017-07-28T00:04:18.690Z,14.18
2017-07-28T00:05:40.529Z,14.09
2017-07-28T00:07:02.067Z,14.12
2017-07-28T00:08:24.226Z,14.02
2017-07-28T00:09:46.682Z,14.02
2017-07-28T00:11:08.227Z,14.03
2017-07-28T00:12:30.705Z,13.99
2017-07-28T00:13:53.186Z,13.99
2017-07-28T00:15:15.635Z,13.99
2017-07-28T00:16:37.491Z,14.02
2017-07-28T00:18:00.037Z,13.99
2017-07-28T00:19:22.207Z,13.97
2017-07-28T00:20:44.618Z,13.92
2017-07-28T00:22:06.766Z,13.88
2017-07-28T00:23:28.898Z,13.78
2017-07-28T00:24:50.741Z,13.79
2017-07-28T00:26:12.518Z,13.78
2017-07-28T00:27:35.068Z,13.78
2017-07-28T00:28:57.229Z,13.71
2017-07-28T00:30:19.422Z,13.6
2017-07-28T00:31:41.528Z,13.55
2017-07-28T00:33:03.057Z,13.69
2017-07-28T00:34:24.894Z,13.67
2017-07-28T00:35:46.189Z,13.73
2017-07-28T00:37:08.661Z,13.63
2017-07-28T00:38:31.116Z,13.59
2017-07-28T00:39:53.576Z,13.62
2017-07-28T00:41:15.790Z,13.59
2017-07-28T00:42:37.652Z,13.67
2017-07-28T00:43:59.173Z,13.57
2017-07-28T00:45:21.112Z,13.51
2017-07-28T00:46:42.946Z,13.55
2017-07-28T00:48:04.709Z,13.6
2017-07-28T00:49:26.918Z,13.51
2017-07-28T00:50:48.556Z,13.54
2017-07-28T00:52:10.706Z,13.49
2017-07-28T00:53:32.472Z,13.44
2017-07-28T00:54:54.946Z,13.42
2017-07-28T00:56:17.107Z,13.41
2017-07-28T00:57:39.045Z,13.44
2017-07-28T00:59:01.926Z,13.32
2017-07-28T01:00:23.526Z,13.36
2017-07-28T01:01:45.736Z,13.41
2017-07-28T01:03:07.913Z,13.2
2017-07-28T01:04:29.997Z,13.17
2017-07-28T01:05:52.187Z,13.17
2017-07-28T01:07:14.013Z,13.03
2017-07-28T01:08:35.217Z,13.15
2017-07-28T01:09:57.716Z,13.04
2017-07-28T01:11:19.237Z,13.05
2017-07-28T01:12:41.515Z,13.12
2017-07-28T01:14:03.493Z,13.07
2017-07-28T01:15:25.933Z,13.08
2017-07-28T01:16:47.464Z,13.04
2017-07-28T01:18:09.276Z,13.07
2017-07-28T01:19:31.096Z,13.22
2017-07-28T01:20:53.630Z,13.2
2017-07-28T01:22:15.785Z,13.19
2017-07-28T01:23:37.617Z,13.22
2017-07-28T01:24:59.553Z,13.26
2017-07-28T01:26:21.426Z,13.3
2017-07-28T01:27:43.571Z,13.36
2017-07-28T01:29:06.005Z,13.38
2017-07-28T01:30:27.843Z,13.42
2017-07-28T01:31:49.296Z,13.48
2017-07-28T01:33:11.156Z,13.45
2017-07-28T01:34:33.093Z,13.42
2017-07-28T01:35:55.426Z,13.44
2017-07-28T01:37:17.655Z,13.46
2017-07-28T01:38:39.646Z,13.41
2017-07-28T01:40:01.486Z,13.36
2017-07-28T01:41:23.671Z,13.46
2017-07-28T01:42:46.262Z,13.45
2017-07-28T01:44:08.095Z,13.44
2017-07-28T01:45:30.026Z,13.46
2017-07-28T01:46:51.530Z,13.48
2017-07-28T01:48:14.003Z,13.42
2017-07-28T01:49:35.629Z,13.44
2017-07-28T01:50:57.793Z,13.44
2017-07-28T01:52:19.622Z,13.49
2017-07-28T01:53:41.869Z,13.55
2017-07-28T01:55:03.389Z,13.51
2017-07-28T01:56:25.550Z,13.46
2017-07-28T01:57:47.458Z,13.46
2017-07-28T01:59:09.584Z,13.45
2017-07-28T02:00:30.796Z,13.44
2017-07-28T02:01:53.325Z,13.48
2017-07-28T02:03:14.915Z,13.39
2017-07-28T02:04:37.052Z,13.45
2017-07-28T02:05:59.212Z,13.39
2017-07-28T02:07:20.766Z,13.41
2017-07-28T02:08:42.656Z,13.38
2017-07-28T02:10:05.386Z,13.44
2017-07-28T02:11:27.550Z,13.44
2017-07-28T02:12:49.701Z,13.3
2017-07-28T02:14:12.256Z,13.3
2017-07-28T02:15:34.053Z,13.29
2017-07-28T02:16:56.201Z,13.25
2017-07-28T02:18:18.336Z,13.22
2017-07-28T02:19:40.288Z,13.17
2017-07-28T02:21:02.995Z,13.17
2017-07-28T02:22:25.157Z,13.1
2017-07-28T02:23:46.402Z,13.2
2017-07-28T02:25:07.908Z,13.14
2017-07-28T02:26:30.414Z,13.14
2017-07-28T02:27:52.786Z,13.17
2017-07-28T02:29:15.253Z,13.17
2017-07-28T02:30:37.156Z,13.15
2017-07-28T02:31:59.876Z,13.03
2017-07-28T02:33:21.815Z,13.08
2017-07-28T02:34:43.744Z,13.05
2017-07-28T02:36:05.906Z,13.15
2017-07-28T02:37:28.422Z,13.1
2017-07-28T02:38:50.034Z,13.08
2017-07-28T02:40:11.985Z,13.07
2017-07-28T02:41:34.125Z,13.05
2017-07-28T02:42:55.907Z,13.11
2017-07-28T02:44:18.044Z,13.01
2017-07-28T02:45:40.317Z,12.97
2017-07-28T02:47:02.171Z,12.96
2017-07-28T02:48:24.309Z,12.95
2017-07-28T02:49:46.778Z,12.97
2017-07-28T02:51:08.658Z,12.95
2017-07-28T02:52:30.916Z,12.95
2017-07-28T02:53:53.485Z,12.89
2017-07-28T02:55:15.356Z,12.9
2017-07-28T02:56:36.875Z,13
2017-07-28T02:57:58.386Z,12.93
2017-07-28T02:59:20.928Z,12.96
2017-07-28T03:00:42.856Z,12.95
2017-07-28T03:02:05.044Z,13.07
2017-07-28T03:03:26.616Z,13.03
2017-07-28T03:04:49.375Z,12.97
2017-07-28T03:06:11.534Z,13.04
2017-07-28T03:07:33.357Z,13
2017-07-28T03:08:55.005Z,13.05
2017-07-28T03:10:17.543Z,13.03
2017-07-28T03:11:39.676Z,13.03
2017-07-28T03:13:01.193Z,13.05
2017-07-28T03:14:23.826Z,13.05
2017-07-28T03:15:45.655Z,12.96
2017-07-28T03:17:07.919Z,13.01
2017-07-28T03:18:30.054Z,12.95
2017-07-28T03:19:51.876Z,12.96
2017-07-28T03:21:13.990Z,12.93
2017-07-28T03:22:35.826Z,13.01
2017-07-28T03:23:58.295Z,12.97
2017-07-28T03:25:20.135Z,13.08
2017-07-28T03:26:41.916Z,13.07
2017-07-28T03:28:04.461Z,13.11
2017-07-28T03:29:25.670Z,13.07
2017-07-28T03:30:47.806Z,13.08
2017-07-28T03:32:10.390Z,13.14
2017-07-28T03:33:32.533Z,13.07
2017-07-28T03:34:54.224Z,13.11
2017-07-28T03:36:15.753Z,13.19
2017-07-28T03:37:37.197Z,13.07
2017-07-28T03:38:59.037Z,13.1
2017-07-28T03:40:20.874Z,13.04
2017-07-28T03:41:42.473Z,13.14
2017-07-28T03:43:04.934Z,13.08
2017-07-28T03:44:27.067Z,13.12
2017-07-28T03:45:49.228Z,13.2
2017-07-28T03:47:11.387Z,13.19
2017-07-28T03:48:34.246Z,13.28
2017-07-28T03:49:56.084Z,13.1
2017-07-28T03:51:17.716Z,13.2
2017-07-28T03:52:39.564Z,13.15
2017-07-28T03:54:01.648Z,13.19
2017-07-28T03:55:23.165Z,13.3
2017-07-28T03:56:45.466Z,13.3
2017-07-28T03:58:07.308Z,13.26
2017-07-28T03:59:28.855Z,13.32
2017-07-28T04:00:50.371Z,13.38
2017-07-28T04:02:12.517Z,13.29
2017-07-28T04:03:34.967Z,13.45
2017-07-28T04:04:57.418Z,13.36
2017-07-28T04:06:19.686Z,13.45
2017-07-28T04:07:41.531Z,13.42
2017-07-28T04:09:03.680Z,13.49
2017-07-28T04:10:26.114Z,13.44
2017-07-28T04:11:48.264Z,13.45
2017-07-28T04:13:10.075Z,13.44
2017-07-28T04:14:31.257Z,13.42
2017-07-28T04:15:53.666Z,13.48
2017-07-28T04:17:15.805Z,13.36
2017-07-28T04:18:37.642Z,13.46
2017-07-28T04:19:59.155Z,13.46
2017-07-28T04:21:20.930Z,13.42
2017-07-28T04:22:43.136Z,13.39
2017-07-28T04:24:05.285Z,13.52
2017-07-28T04:25:27.121Z,13.46
2017-07-28T04:26:49.905Z,13.41
2017-07-28T04:28:12.063Z,13.45
2017-07-28T04:29:33.576Z,13.49
2017-07-28T04:30:55.483Z,13.55
2017-07-28T04:32:17.595Z,13.62
2017-07-28T04:33:40.045Z,13.71
2017-07-28T04:35:01.568Z,13.77
2017-07-28T04:36:24.028Z,13.91
2017-07-28T04:37:46.125Z,14.1
2017-07-28T04:39:08.436Z,14.14
2017-07-28T04:40:30.886Z,14.21
2017-07-28T04:41:52.713Z,14.21
2017-07-28T04:43:14.536Z,14.24
2017-07-28T04:44:36.195Z,14.24
2017-07-28T04:45:58.346Z,14.32
2017-07-28T04:47:20.887Z,14.52
2017-07-28T04:48:42.711Z,14.65
2017-07-28T04:50:04.878Z,14.58
2017-07-28T04:51:26.715Z,14.68
2017-07-28T04:52:48.869Z,14.68
2017-07-28T04:54:11.306Z,14.8
2017-07-28T04:55:33.212Z,14.98
2017-07-28T04:56:55.681Z,15.14
2017-07-28T04:58:17.524Z,15.2
2017-07-28T04:59:39.646Z,15.29
2017-07-28T05:01:01.472Z,15.28
2017-07-28T05:02:23.307Z,15.56
2017-07-28T05:03:45.128Z,15.65
2017-07-28T05:05:07.626Z,15.89
2017-07-28T05:06:29.213Z,16.2
2017-07-28T05:07:51.383Z,16.28
2017-07-28T05:09:12.576Z,16.28
2017-07-28T05:10:35.406Z,16.17
2017-07-28T05:11:57.238Z,16.11
2017-07-28T05:13:19.799Z,16.27
2017-07-28T05:14:41.626Z,16.41
2017-07-28T05:16:04.567Z,16.49
2017-07-28T05:17:26.521Z,16.42
2017-07-28T05:18:48.109Z,16.43
2017-07-28T05:20:10.272Z,16.56
2017-07-28T05:21:31.407Z,16.5
2017-07-28T05:22:53.244Z,16.56
2017-07-28T05:24:15.690Z,16.5
2017-07-28T05:25:37.858Z,16.57
2017-07-28T05:27:00.316Z,16.56
2017-07-28T05:28:22.551Z,17.22
2017-07-28T05:29:44.697Z,18.23
2017-07-28T05:31:06.855Z,19.14
2017-07-28T05:32:29.009Z,20.36
2017-07-28T05:33:50.854Z,21.34
2017-07-28T05:35:12.475Z,22.25
2017-07-28T05:36:34.643Z,23.4
2017-07-28T05:37:56.759Z,24.43
2017-07-28T05:39:18.273Z,25.54
2017-07-28T05:40:40.757Z,26.43
2017-07-28T05:42:01.966Z,26.81
2017-07-28T05:43:24.156Z,25.91
2017-07-28T05:44:45.697Z,25.67
2017-07-28T05:46:07.561Z,26.58
2017-07-28T05:47:29.801Z,27.5
2017-07-28T05:48:52.245Z,27.36
2017-07-28T05:50:14.165Z,25.99
2017-07-28T05:51:36.347Z,24.31
2017-07-28T05:52:58.817Z,23.27
2017-07-28T05:54:21.268Z,23.27
2017-07-28T05:55:43.450Z,24.62
2017-07-28T05:57:05.606Z,24.96
2017-07-28T05:58:27.815Z,24.08
2017-07-28T05:59:50.643Z,22.77
2017-07-28T06:01:12.471Z,21.82
2017-07-28T06:02:33.986Z,21.17
2017-07-28T06:03:55.512Z,20.73
2017-07-28T06:05:17.613Z,20.36
2017-07-28T06:06:40.074Z,20.26
2017-07-28T06:08:02.663Z,21.59
2017-07-28T06:09:24.818Z,23.65
2017-07-28T06:10:46.964Z,24.37
2017-07-28T06:12:09.116Z,24.49
2017-07-28T06:13:31.311Z,25.76
2017-07-28T06:14:53.163Z,27.29
2017-07-28T06:16:15.642Z,27.65
2017-07-28T06:17:37.162Z,29.02
2017-07-28T06:18:59.130Z,30.45
2017-07-28T06:20:21.349Z,31.86
2017-07-28T06:21:43.607Z,32.6
2017-07-28T06:23:05.797Z,32.18
2017-07-28T06:24:28.318Z,30.86
2017-07-28T06:25:50.462Z,31.02
2017-07-28T06:27:12.450Z,31.7
2017-07-28T06:28:34.454Z,32.5
2017-07-28T06:29:56.648Z,33.12
2017-07-28T06:31:19.317Z,33.65
2017-07-28T06:32:41.757Z,33.06
2017-07-28T06:34:03.608Z,33.45
2017-07-28T06:35:26.104Z,34.28
2017-07-28T06:36:48.711Z,33.29
2017-07-28T06:38:11.067Z,32.38
2017-07-28T06:39:32.608Z,32.75
2017-07-28T06:40:54.569Z,32.59
2017-07-28T06:42:16.099Z,32.77
2017-07-28T06:43:38.836Z,33.53
2017-07-28T06:45:01.346Z,34.58
2017-07-28T06:46:22.921Z,35.16
2017-07-28T06:47:45.213Z,35.72
2017-07-28T06:49:07.933Z,36.25
2017-07-28T06:50:30.105Z,36.13
2017-07-28T06:51:52.096Z,36.54
2017-07-28T06:53:14.288Z,37.02
2017-07-28T06:54:37.237Z,37.34
2017-07-28T06:55:58.893Z,37.49
2017-07-28T06:57:21.204Z,37.32
2017-07-28T06:58:43.388Z,37.55
2017-07-28T07:00:05.606Z,37.62
2017-07-28T07:01:27.779Z,37.43
2017-07-28T07:02:49.958Z,37.21
2017-07-28T07:04:11.497Z,37.03
2017-07-28T07:05:33.644Z,35.63
2017-07-28T07:06:56.148Z,35.59
2017-07-28T07:08:18.068Z,34.21
2017-07-28T07:09:40.046Z,32.35
2017-07-28T07:11:02.056Z,30.64
2017-07-28T07:12:23.597Z,29.68
2017-07-28T07:13:45.758Z,28.64
2017-07-28T07:15:07.934Z,27.43
2017-07-28T07:16:30.358Z,26.7
2017-07-28T07:17:52.838Z,26.17
2017-07-28T07:19:14.811Z,25.94
2017-07-28T07:20:36.667Z,25.24
2017-07-28T07:21:58.884Z,24.83
2017-07-28T07:23:21.098Z,25.15
2017-07-28T07:24:43.256Z,26.07
2017-07-28T07:26:05.443Z,26.81
2017-07-28T07:27:27.659Z,26.91
2017-07-28T07:28:49.203Z,26.66
2017-07-28T07:30:11.136Z,26.45
2017-07-28T07:31:33.329Z,25.98
2017-07-28T07:32:55.439Z,25.95
2017-07-28T07:34:17.363Z,25.7
2017-07-28T07:35:39.217Z,25.23
2017-07-28T07:37:01.137Z,24.65
2017-07-28T07:38:23.687Z,23.94
2017-07-28T07:39:45.951Z,23.33
2017-07-28T07:41:08.463Z,22.95
2017-07-28T07:42:30.665Z,22.62
2017-07-28T07:43:52.635Z,22.76
2017-07-28T07:45:14.944Z,23.33
2017-07-28T07:46:37.420Z,25.51
2017-07-28T07:47:59.986Z,27.4
2017-07-28T07:49:22.107Z,28.44
2017-07-28T07:50:44.589Z,28.77
2017-07-28T07:52:06.509Z,29.11
2017-07-28T07:53:28.677Z,29.04
2017-07-28T07:54:51.185Z,28.55
2017-07-28T07:56:13.416Z,27.93
2017-07-28T07:57:35.312Z,27.22
2017-07-28T07:58:57.809Z,27
2017-07-28T08:00:19.927Z,27.81
2017-07-28T08:01:42.094Z,28.37
2017-07-28T08:03:04.569Z,28.73
2017-07-28T08:04:27.166Z,29.19
2017-07-28T08:05:49.898Z,28.98
2017-07-28T08:07:11.776Z,28.52
2017-07-28T08:08:33.644Z,27.82
2017-07-28T08:09:56.147Z,27.46
2017-07-28T08:11:18.365Z,27.63
2017-07-28T08:12:40.547Z,27.63
2017-07-28T08:14:02.480Z,27.25
2017-07-28T08:15:24.543Z,27.28
2017-07-28T08:16:47.114Z,27.09
2017-07-28T08:18:09.589Z,26.67
2017-07-28T08:19:32.092Z,26.29
2017-07-28T08:20:54.316Z,25.85
2017-07-28T08:22:16.761Z,25.6
2017-07-28T08:23:38.654Z,25.27
2017-07-28T08:25:00.820Z,25.02
2017-07-28T08:26:23.058Z,24.8
2017-07-28T08:27:45.629Z,24.81
2017-07-28T08:29:08.213Z,25.1
2017-07-28T08:30:30.047Z,25.14
2017-07-28T08:31:51.998Z,25.3
2017-07-28T08:33:14.243Z,25.27
2017-07-28T08:34:36.735Z,25.38
2017-07-28T08:35:59.054Z,25.36
2017-07-28T08:37:20.626Z,25.55
2017-07-28T08:38:43.105Z,26.02
2017-07-28T08:40:05.677Z,26.26
2017-07-28T08:41:28.151Z,26.5
2017-07-28T08:42:50.736Z,26.29
2017-07-28T08:44:13.194Z,26.02
2017-07-28T08:45:35.657Z,25.97
2017-07-28T08:46:57.505Z,26.1
2017-07-28T08:48:19.027Z,25.85
2017-07-28T08:49:41.491Z,25.42
2017-07-28T08:51:03.338Z,25.1
2017-07-28T08:52:25.255Z,25.08
2017-07-28T08:53:47.457Z,25.13
2017-07-28T08:55:09.877Z,24.81
2017-07-28T08:56:31.431Z,24.78
2017-07-28T08:57:53.627Z,24.81
2017-07-28T08:59:15.804Z,24.71
2017-07-28T09:00:37.966Z,24.73
2017-07-28T09:01:59.499Z,24.69
2017-07-28T09:03:21.666Z,24.57
2017-07-28T09:04:43.882Z,24.61
2017-07-28T09:06:05.985Z,24.39
2017-07-28T09:07:28.487Z,24.25
2017-07-28T09:08:50.368Z,24.08
2017-07-28T09:10:12.834Z,24.13
2017-07-28T09:11:35.698Z,24.08
2017-07-28T09:12:57.868Z,24.32
2017-07-28T09:14:20.788Z,24.34
2017-07-28T09:15:42.649Z,24.57
2017-07-28T09:17:05.222Z,24.78
2017-07-28T09:18:27.076Z,25.1
2017-07-28T09:19:48.687Z,25.35
2017-07-28T09:21:10.891Z,25.7
2017-07-28T09:22:33.696Z,25.99
2017-07-28T09:23:55.566Z,25.95
2017-07-28T09:25:17.734Z,25.85
2017-07-28T09:26:39.948Z,25.76
2017-07-28T09:28:02.548Z,26.09
2017-07-28T09:29:25.028Z,26.37
2017-07-28T09:30:47.526Z,26.45
2017-07-28T09:32:10.135Z,26.5
2017-07-28T09:33:32.864Z,26.4
2017-07-28T09:34:55.567Z,26.3
2017-07-28T09:36:17.868Z,25.99
2017-07-28T09:37:39.876Z,26.01
2017-07-28T09:39:02.082Z,25.91
2017-07-28T09:40:24.265Z,26.25
2017-07-28T09:41:46.446Z,26.76
2017-07-28T09:43:08.602Z,27.13
2017-07-28T09:44:31.143Z,27.37
2017-07-28T09:45:53.325Z,27.24
2017-07-28T09:47:15.826Z,26.88
2017-07-28T09:48:38.054Z,26.47
2017-07-28T09:50:00.582Z,26.02
2017-07-28T09:51:23.088Z,25.43
2017-07-28T09:52:45.585Z,24.69
2017-07-28T09:54:08.081Z,23.98
2017-07-28T09:55:30.853Z,23.46
2017-07-28T09:56:53.012Z,23.1
2017-07-28T09:58:15.435Z,22.62
2017-07-28T09:59:37.617Z,22.17
2017-07-28T10:01:00.060Z,21.9
2017-07-28T10:02:21.976Z,21.38
2017-07-28T10:03:44.136Z,21.16
2017-07-28T10:05:06.388Z,20.87
2017-07-28T10:06:28.563Z,20.61
2017-07-28T10:07:50.827Z,20.21
2017-07-28T10:09:12.702Z,20.02
2017-07-28T10:10:34.866Z,19.76
2017-07-28T10:11:57.741Z,19.62
2017-07-28T10:13:19.905Z,19.5
2017-07-28T10:14:42.415Z,19.41
2017-07-28T10:16:04.259Z,19.29
2017-07-28T10:17:27.017Z,19.25
2017-07-28T10:18:49.226Z,19.28
2017-07-28T10:20:11.723Z,19.33
2017-07-28T10:21:33.616Z,19.23
2017-07-28T10:22:56.408Z,19.39
2017-07-28T10:24:18.898Z,19.5
2017-07-28T10:25:41.093Z,19.99
2017-07-28T10:27:03.254Z,20.38
2017-07-28T10:28:25.708Z,21.24
2017-07-28T10:29:47.971Z,21.65
2017-07-28T10:31:10.146Z,21.96
2017-07-28T10:32:31.666Z,22.21
2017-07-28T10:33:54.447Z,22.4
2017-07-28T10:35:17.006Z,22.55
2017-07-28T10:36:38.858Z,22.62
2017-07-28T10:38:01.390Z,22.65
2017-07-28T10:39:23.855Z,22.62
2017-07-28T10:40:46.037Z,22.49
2017-07-28T10:42:08.215Z,22.39
2017-07-28T10:43:30.376Z,22.52
2017-07-28T10:44:52.527Z,22.73
2017-07-28T10:46:14.638Z,22.98
2017-07-28T10:47:36.815Z,23.32
2017-07-28T10:48:59.023Z,23.6
2017-07-28T10:50:21.462Z,23.88
2017-07-28T10:51:43.304Z,24.13
2017-07-28T10:53:04.836Z,24.31
2017-07-28T10:54:27.357Z,24.3
2017-07-28T10:55:49.513Z,24.31
2017-07-28T10:57:12.002Z,24.28
2017-07-28T10:58:33.864Z,24.12
2017-07-28T10:59:56.055Z,24.12
2017-07-28T11:01:18.764Z,23.95
2017-07-28T11:02:41.244Z,23.91
2017-07-28T11:04:03.133Z,23.79
2017-07-28T11:05:25.305Z,23.65
2017-07-28T11:06:48.133Z,23.58
2017-07-28T11:08:09.987Z,23.48
2017-07-28T11:09:32.502Z,23.23
2017-07-28T11:10:54.383Z,22.91
2017-07-28T11:12:16.795Z,22.64
2017-07-28T11:13:38.976Z,22.47
2017-07-28T11:15:01.152Z,22.39
2017-07-28T11:16:23.725Z,22.36
2017-07-28T11:17:46.523Z,22.7
2017-07-28T11:19:08.685Z,23.28
2017-07-28T11:20:31.281Z,23.69
2017-07-28T11:21:53.232Z,24.22
2017-07-28T11:23:15.774Z,24.43
2017-07-28T11:24:37.984Z,24.61
2017-07-28T11:26:00.558Z,24.34
2017-07-28T11:27:22.446Z,24.08
2017-07-28T11:28:45.344Z,23.68
2017-07-28T11:30:06.997Z,23.38
2017-07-28T11:31:29.190Z,23.15
2017-07-28T11:32:51.024Z,23.04
2017-07-28T11:34:13.440Z,23.05
2017-07-28T11:35:35.655Z,22.92
2017-07-28T11:36:57.846Z,23.19
2017-07-28T11:38:20.012Z,23.35
2017-07-28T11:39:42.617Z,23.48
2017-07-28T11:41:05.113Z,23.73
2017-07-28T11:42:27.359Z,23.76
2017-07-28T11:43:49.545Z,23.57
2017-07-28T11:45:12.154Z,23.36
2017-07-28T11:46:34.005Z,23.13
2017-07-28T11:47:56.497Z,22.85
2017-07-28T11:49:18.710Z,22.64
2017-07-28T11:50:41.103Z,22.57
2017-07-28T11:52:03.595Z,22.47
2017-07-28T11:53:26.134Z,22.54
2017-07-28T11:54:48.305Z,22.62
2017-07-28T11:56:10.587Z,22.61
2017-07-28T11:57:32.773Z,22.52
2017-07-28T11:58:55.268Z,22.39
2017-07-28T12:00:17.528Z,21.92
2017-07-28T12:01:40.346Z,21.46
2017-07-28T12:03:02.518Z,21.25
2017-07-28T12:04:24.120Z,20.92
2017-07-28T12:05:46.296Z,20.73
2017-07-28T12:07:08.736Z,20.57
2017-07-28T12:08:30.997Z,20.33
2017-07-28T12:09:52.873Z,20.21
2017-07-28T12:11:15.051Z,20.01
2017-07-28T12:12:37.545Z,20.08
2017-07-28T12:13:59.745Z,20.11
2017-07-28T12:15:21.946Z,20.47
2017-07-28T12:16:44.414Z,20.85
2017-07-28T12:18:07.492Z,21.25
2017-07-28T12:19:30.130Z,21.69
2017-07-28T12:20:52.288Z,22.02
2017-07-28T12:22:14.121Z,22.24
2017-07-28T12:23:36.732Z,22.39
2017-07-28T12:24:58.895Z,22.2
2017-07-28T12:26:21.070Z,22.12
2017-07-28T12:27:43.223Z,22.05
2017-07-28T12:29:05.035Z,21.84
2017-07-28T12:30:27.444Z,21.74
2017-07-28T12:31:49.304Z,21.53
2017-07-28T12:33:11.470Z,21.32
2017-07-28T12:34:33.724Z,21.31
2017-07-28T12:35:55.880Z,21.25
2017-07-28T12:37:18.433Z,21.22
2017-07-28T12:38:40.685Z,21.28
2017-07-28T12:40:03.196Z,21.47
2017-07-28T12:41:25.355Z,21.37
2017-07-28T12:42:47.550Z,21.34
2017-07-28T12:44:09.800Z,21.24
2017-07-28T12:45:31.992Z,21.16
2017-07-28T12:46:54.173Z,21.19
2017-07-28T12:48:16.675Z,21.28
2017-07-28T12:49:39.283Z,21.24
2017-07-28T12:51:01.745Z,21.13
2017-07-28T12:52:23.594Z,21.13
2017-07-28T12:53:45.808Z,21.13
2017-07-28T12:55:07.645Z,21.21
2017-07-28T12:56:29.872Z,21.37
2017-07-28T12:57:51.726Z,21.29
2017-07-28T12:59:13.877Z,21.38
2017-07-28T13:00:36.386Z,21.43
2017-07-28T13:01:58.844Z,21.58
2017-07-28T13:03:21.035Z,21.56
2017-07-28T13:04:42.878Z,21.62
2017-07-28T13:06:05.066Z,21.74
2017-07-28T13:07:27.587Z,22.03
2017-07-28T13:08:50.116Z,22.35
2017-07-28T13:10:12.303Z,22.64
2017-07-28T13:11:34.466Z,22.77
2017-07-28T13:12:56.265Z,22.9
2017-07-28T13:14:18.433Z,23.07
2017-07-28T13:15:40.306Z,23.22
2017-07-28T13:17:02.501Z,23.25
2017-07-28T13:18:25.293Z,22.97
2017-07-28T13:19:47.603Z,22.65
2017-07-28T13:21:09.563Z,22.45
2017-07-28T13:22:32.039Z,22.14
2017-07-28T13:23:54.563Z,22.15
2017-07-28T13:25:16.747Z,22.05
2017-07-28T13:26:38.921Z,21.75
2017-07-28T13:28:00.791Z,21.69
2017-07-28T13:29:23.024Z,21.65
2017-07-28T13:30:45.565Z,21.47
2017-07-28T13:32:07.864Z,21.34
2017-07-28T13:33:30.016Z,20.99
2017-07-28T13:34:52.205Z,20.76
2017-07-28T13:36:14.135Z,20.67
2017-07-28T13:37:36.623Z,20.51
2017-07-28T13:38:58.804Z,20.5
2017-07-28T13:40:21.583Z,20.31
2017-07-28T13:41:43.445Z,20.29
2017-07-28T13:43:05.297Z,20.31
2017-07-28T13:44:27.832Z,20.35
2017-07-28T13:45:50.009Z,20.29
2017-07-28T13:47:11.868Z,20.33
2017-07-28T13:48:34.034Z,20.64
2017-07-28T13:49:55.876Z,20.8
2017-07-28T13:51:18.028Z,21.06
2017-07-28T13:52:40.277Z,21.21
2017-07-28T13:54:02.463Z,21.46
2017-07-28T13:55:24.423Z,21.58
2017-07-28T13:56:47.013Z,21.71
2017-07-28T13:58:09.176Z,21.67
2017-07-28T13:59:31.457Z,21.71
2017-07-28T14:00:53.937Z,21.92
2017-07-28T14:02:16.505Z,22.22
2017-07-28T14:03:38.697Z,22.73
2017-07-28T14:05:01.291Z,22.97
2017-07-28T14:06:23.263Z,22.97
2017-07-28T14:07:45.706Z,23.05
2017-07-28T14:09:08.231Z,22.91
2017-07-28T14:10:30.083Z,22.88
2017-07-28T14:11:52.355Z,22.75
2017-07-28T14:13:15.424Z,22.8
2017-07-28T14:14:37.066Z,22.97
2017-07-28T14:15:58.936Z,23.35
2017-07-28T14:17:20.817Z,23.5
2017-07-28T14:18:43.336Z,23.51
2017-07-28T14:20:05.189Z,23.42
2017-07-28T14:21:27.796Z,23.01
2017-07-28T14:22:49.659Z,22.62
2017-07-28T14:24:12.676Z,22.18
2017-07-28T14:25:35.371Z,22.02
2017-07-28T14:26:57.922Z,21.64
2017-07-28T14:28:19.467Z,21.42
2017-07-28T14:29:42.028Z,21.1
2017-07-28T14:31:04.255Z,21.06
2017-07-28T14:32:26.153Z,21.21
2017-07-28T14:33:48.089Z,21.28
2017-07-28T14:35:10.885Z,21.58
2017-07-28T14:36:33.170Z,21.77
2017-07-28T14:37:55.558Z,21.98
2017-07-28T14:39:17.767Z,22.03
2017-07-28T14:40:40.577Z,22.42
2017-07-28T14:42:03.043Z,22.64
2017-07-28T14:43:25.230Z,22.61
2017-07-28T14:44:47.415Z,22.57
2017-07-28T14:46:09.919Z,22.35
2017-07-28T14:47:32.076Z,22.27
2017-07-28T14:48:53.949Z,22.05
2017-07-28T14:50:16.476Z,21.86
2017-07-28T14:51:38.616Z,21.94
2017-07-28T14:53:00.784Z,21.99
2017-07-28T14:54:22.690Z,22.25
2017-07-28T14:55:45.169Z,22.33
2017-07-28T14:57:07.605Z,22.52
2017-07-28T14:58:29.814Z,22.61
2017-07-28T14:59:52.015Z,22.7
2017-07-28T15:01:13.603Z,22.92
2017-07-28T15:02:36.369Z,22.98
2017-07-28T15:03:58.868Z,23.1
2017-07-28T15:05:21.386Z,23.31
2017-07-28T15:06:43.712Z,23.73
2017-07-28T15:08:06.456Z,24.09
2017-07-28T15:09:28.326Z,24.25
2017-07-28T15:10:50.524Z,24.3
2017-07-28T15:12:12.395Z,24.06
2017-07-28T15:13:34.557Z,23.73
2017-07-28T15:14:56.783Z,23.55
2017-07-28T15:16:18.660Z,23.27
2017-07-28T15:17:41.145Z,22.97
2017-07-28T15:19:03.336Z,22.68
2017-07-28T15:20:25.860Z,22.39
2017-07-28T15:21:48.023Z,22.15
2017-07-28T15:23:10.344Z,22.03
2017-07-28T15:24:33.100Z,22.12
2017-07-28T15:25:54.949Z,22.2
2017-07-28T15:27:17.449Z,22.25
2017-07-28T15:28:39.938Z,22.24
2017-07-28T15:30:02.467Z,22.31
2017-07-28T15:31:24.971Z,22.2
2017-07-28T15:32:46.506Z,22.18
2017-07-28T15:34:08.357Z,22.12
2017-07-28T15:35:31.255Z,22.02
2017-07-28T15:36:53.221Z,21.74
2017-07-28T15:38:15.542Z,21.49
2017-07-28T15:39:38.031Z,21.24
2017-07-28T15:41:00.836Z,21.16
2017-07-28T15:42:23.379Z,21.03
2017-07-28T15:43:45.885Z,20.94
2017-07-28T15:45:08.085Z,20.82
2017-07-28T15:46:30.536Z,21.01
2017-07-28T15:47:53.069Z,21.12
2017-07-28T15:49:15.245Z,21.13
2017-07-28T15:50:37.445Z,21.32
2017-07-28T15:51:59.595Z,21.5
2017-07-28T15:53:22.196Z,21.59
2017-07-28T15:54:43.856Z,21.83
2017-07-28T15:56:06.126Z,22.15
2017-07-28T15:57:27.959Z,22.51
2017-07-28T15:58:49.801Z,22.9
2017-07-28T16:00:11.976Z,23.19
2017-07-28T16:01:33.498Z,23.2
2017-07-28T16:02:55.681Z,23.09
2017-07-28T16:04:18.201Z,22.98
2017-07-28T16:05:40.367Z,22.92
2017-07-28T16:07:02.873Z,22.67
2017-07-28T16:08:25.045Z,22.49
2017-07-28T16:09:47.056Z,22.39
2017-07-28T16:11:09.409Z,22.2
2017-07-28T16:12:30.955Z,22.15
2017-07-28T16:13:53.526Z,22.1
2017-07-28T16:15:16.056Z,21.96
2017-07-28T16:16:38.236Z,21.98
2017-07-28T16:18:00.405Z,21.94
2017-07-28T16:19:22.606Z,21.8
2017-07-28T16:20:44.577Z,21.84
2017-07-28T16:22:06.784Z,21.83
2017-07-28T16:23:28.324Z,21.8
2017-07-28T16:24:50.961Z,21.86
2017-07-28T16:26:13.148Z,21.82
2017-07-28T16:27:35.331Z,21.82
2017-07-28T16:28:57.505Z,21.79
2017-07-28T16:30:19.336Z,21.72
2017-07-28T16:31:41.921Z,21.71
2017-07-28T16:33:04.404Z,21.64
2017-07-28T16:34:26.894Z,21.61
2017-07-28T16:35:49.079Z,21.59
2017-07-28T16:37:11.665Z,21.53
2017-07-28T16:38:33.824Z,21.47
2017-07-28T16:39:55.806Z,21.52
2017-07-28T16:41:18.576Z,21.62
2017-07-28T16:42:41.077Z,21.72
2017-07-28T16:44:03.246Z,21.75
2017-07-28T16:45:25.428Z,21.86
2017-07-28T16:46:48.236Z,22
2017-07-28T16:48:10.696Z,21.98
2017-07-28T16:49:32.898Z,21.98
2017-07-28T16:50:55.396Z,21.98
2017-07-28T16:52:17.875Z,21.83
2017-07-28T16:53:40.369Z,21.77
2017-07-28T16:55:02.546Z,21.58
2017-07-28T16:56:24.736Z,21.49
2017-07-28T16:57:47.534Z,21.29
2017-07-28T16:59:09.099Z,21.31
2017-07-28T17:00:31.607Z,21.29
2017-07-28T17:01:53.787Z,21.38
2017-07-28T17:03:16.544Z,21.53
2017-07-28T17:04:38.732Z,21.54
2017-07-28T17:06:00.726Z,21.69
2017-07-28T17:07:23.206Z,21.61
2017-07-28T17:08:45.702Z,21.58
2017-07-28T17:10:07.963Z,21.52
2017-07-28T17:11:30.137Z,21.43
2017-07-28T17:12:51.983Z,21.42
2017-07-28T17:14:14.866Z,21.31
2017-07-28T17:15:36.749Z,21.27
2017-07-28T17:16:58.606Z,21.17
2017-07-28T17:18:20.805Z,21.22
2017-07-28T17:19:43.607Z,21.04
2017-07-28T17:21:05.793Z,21.03
2017-07-28T17:22:28.318Z,20.94
2017-07-28T17:23:50.640Z,20.94
2017-07-28T17:25:12.732Z,21.01
2017-07-28T17:26:35.231Z,21.06
2017-07-28T17:27:57.099Z,21.22
2017-07-28T17:29:19.298Z,21.32
2017-07-28T17:30:41.775Z,21.68
2017-07-28T17:32:04.027Z,21.88
2017-07-28T17:33:26.547Z,21.99
2017-07-28T17:34:48.695Z,22.2
2017-07-28T17:36:11.460Z,22.27
2017-07-28T17:37:33.653Z,22.4
2017-07-28T17:38:54.866Z,22.52
2017-07-28T17:40:17.165Z,22.51
2017-07-28T17:41:39.758Z,22.39